createdAt,value
2022-10-11T00:00:21.094Z,88.90
2022-10-11T00:02:48.528Z,89.10
2022-10-11T00:05:16.385Z,88.90
2022-10-11T00:07:43.956Z,88.80
2022-10-11T00:10:11.631Z,88.80
2022-10-11T00:12:39.315Z,88.50
2022-10-11T00:15:08.629Z,88.90
2022-10-11T00:17:36.222Z,89.00
2022-10-11T00:20:04.390Z,89.10
2022-10-11T00:22:31.941Z,89.00
2022-10-11T00:24:59.696Z,88.90
2022-10-11T00:27:27.330Z,88.80
2022-10-11T00:29:55.053Z,88.30
2022-10-11T00:32:22.749Z,89.00
2022-10-11T00:34:50.326Z,89.00
2022-10-11T00:37:18.706Z,89.20
2022-10-11T00:39:46.403Z,89.20
2022-10-11T00:42:15.706Z,89.20
2022-10-11T00:44:51.100Z,88.90
2022-10-11T00:50:11.245Z,89.20
2022-10-11T00:52:42.364Z,89.00
2022-10-11T00:55:15.025Z,88.80
2022-10-11T00:57:46.900Z,89.10
2022-10-11T01:00:15.724Z,89.00
2022-10-11T01:02:43.931Z,89.10
2022-10-11T01:05:30.418Z,89.00
2022-10-11T01:07:59.861Z,89.10
2022-10-11T01:10:28.661Z,89.00
2022-10-11T01:13:33.140Z,89.40
2022-10-11T01:16:09.463Z,88.80
2022-10-11T01:18:50.381Z,88.90
2022-10-11T01:21:49.172Z,89.00
2022-10-11T01:24:43.155Z,88.90
2022-10-11T01:27:25.865Z,88.70
2022-10-11T01:30:17.535Z,88.40
2022-10-11T01:33:23.927Z,88.20
2022-10-11T01:36:41.841Z,89.10
2022-10-11T01:39:41.122Z,88.50
2022-10-11T01:42:11.393Z,88.20
2022-10-11T01:44:41.901Z,88.00
2022-10-11T01:47:09.306Z,88.30
2022-10-11T01:49:36.697Z,88.00
2022-10-11T01:52:06.751Z,88.30
2022-10-11T01:55:14.576Z,88.70
2022-10-11T01:58:10.335Z,88.50
2022-10-11T02:01:04.124Z,88.60
2022-10-11T02:04:02.299Z,88.30
2022-10-11T02:06:40.403Z,88.80
2022-10-11T02:09:17.034Z,89.00
2022-10-11T02:11:45.352Z,88.50
2022-10-11T02:14:23.360Z,88.30
2022-10-11T02:17:04.583Z,88.50
2022-10-11T02:19:38.904Z,88.30
2022-10-11T02:22:32.164Z,88.20
2022-10-11T02:25:03.046Z,88.10
2022-10-11T02:27:34.308Z,87.90
2022-10-11T02:30:04.786Z,87.30
2022-10-11T02:32:33.357Z,88.30
2022-10-11T02:35:02.724Z,88.10
2022-10-11T02:37:56.021Z,88.20
2022-10-11T02:40:43.546Z,88.10
2022-10-11T02:43:19.664Z,88.00
2022-10-11T02:46:04.379Z,88.00
2022-10-11T02:48:33.900Z,87.80
2022-10-11T02:51:02.715Z,88.00
2022-10-11T02:53:30.051Z,88.20
2022-10-11T02:55:57.580Z,88.30
2022-10-11T02:58:26.004Z,88.00
2022-10-11T03:00:53.542Z,88.40
2022-10-11T03:03:20.997Z,88.50
2022-10-11T03:05:48.437Z,88.40
2022-10-11T03:08:17.569Z,88.40
2022-10-11T03:10:45.017Z,88.60
2022-10-11T03:13:17.263Z,88.60
2022-10-11T03:16:02.325Z,88.80
2022-10-11T03:18:32.373Z,88.60
2022-10-11T03:20:59.785Z,88.80
2022-10-11T03:23:27.141Z,88.50
2022-10-11T03:25:54.585Z,89.00
2022-10-11T03:28:22.348Z,88.70
2022-10-11T03:30:51.111Z,88.80
2022-10-11T03:33:18.919Z,88.40
2022-10-11T03:35:47.681Z,89.10
2022-10-11T03:38:20.521Z,88.90
2022-10-11T03:40:48.470Z,88.30
2022-10-11T03:43:16.065Z,88.10
2022-10-11T03:45:43.697Z,88.10
2022-10-11T03:48:11.827Z,88.30
2022-10-11T03:50:40.000Z,88.20
2022-10-11T03:53:08.424Z,88.20
2022-10-11T03:55:38.055Z,88.10
2022-10-11T03:58:05.605Z,87.60
2022-10-11T04:00:34.308Z,88.20
2022-10-11T04:03:04.040Z,88.10
2022-10-11T04:05:31.572Z,87.60
2022-10-11T04:07:58.825Z,87.60
2022-10-11T04:10:26.160Z,87.20
2022-10-11T04:12:53.535Z,87.20
2022-10-11T04:15:21.050Z,87.40
2022-10-11T04:17:48.466Z,87.40
2022-10-11T04:20:15.942Z,87.10
2022-10-11T04:22:43.410Z,87.40
2022-10-11T04:25:11.130Z,87.40
2022-10-11T04:27:38.505Z,86.70
2022-10-11T04:30:07.255Z,86.70
2022-10-11T04:32:34.824Z,87.00
2022-10-11T04:35:04.044Z,86.70
2022-10-11T04:37:32.344Z,86.70
2022-10-11T04:39:59.802Z,86.90
2022-10-11T04:42:27.416Z,87.10
2022-10-11T04:44:54.665Z,86.90
2022-10-11T04:47:22.110Z,86.30
2022-10-11T04:49:49.496Z,86.60
2022-10-11T04:52:16.890Z,86.80
2022-10-11T04:54:44.331Z,86.50
2022-10-11T04:57:11.702Z,86.30
2022-10-11T04:59:39.056Z,86.70
2022-10-11T05:02:06.642Z,86.30
2022-10-11T05:04:34.011Z,86.10
2022-10-11T05:07:01.332Z,86.50
2022-10-11T05:09:28.695Z,89.20
2022-10-11T05:11:56.226Z,85.10
2022-10-11T05:14:23.637Z,84.40
2022-10-11T05:16:50.977Z,84.80
2022-10-11T05:19:18.426Z,85.00
2022-10-11T05:21:45.732Z,85.30
2022-10-11T05:24:13.188Z,85.70
2022-10-11T05:26:40.612Z,85.80
2022-10-11T05:29:08.012Z,85.70
2022-10-11T05:31:35.307Z,86.10
2022-10-11T05:34:02.653Z,85.90
2022-10-11T05:36:30.183Z,85.90
2022-10-11T05:38:57.619Z,86.00
2022-10-11T05:41:25.018Z,86.00
2022-10-11T05:43:52.537Z,85.90
2022-10-11T05:46:19.897Z,86.00
2022-10-11T05:48:47.258Z,86.00
2022-10-11T05:51:14.659Z,86.00
2022-10-11T05:53:42.016Z,86.10
2022-10-11T05:56:26.458Z,87.00
2022-10-11T05:58:54.960Z,87.30
2022-10-11T06:01:26.902Z,87.80
2022-10-11T06:03:54.497Z,87.70
2022-10-11T06:06:22.141Z,87.90
2022-10-11T06:08:49.893Z,87.70
2022-10-11T06:11:18.912Z,88.80
2022-10-11T06:13:46.259Z,89.30
2022-10-11T06:16:13.938Z,89.70
2022-10-11T06:18:41.657Z,89.90
2022-10-11T06:21:09.149Z,90.20
2022-10-11T06:23:36.622Z,90.50
2022-10-11T06:26:07.841Z,90.90
2022-10-11T06:28:36.852Z,90.90
2022-10-11T06:31:06.024Z,91.10
2022-10-11T06:33:34.528Z,91.10
2022-10-11T06:36:04.607Z,91.70
2022-10-11T06:38:32.377Z,91.00
2022-10-11T06:41:20.337Z,91.00
2022-10-11T06:43:50.093Z,91.00
2022-10-11T06:46:21.833Z,91.20
2022-10-11T06:48:50.472Z,90.60
2022-10-11T06:51:19.714Z,90.20
2022-10-11T06:53:52.178Z,91.00
2022-10-11T06:56:20.125Z,90.70
2022-10-11T06:58:47.652Z,90.80
2022-10-11T07:01:19.103Z,90.50
2022-10-11T07:03:46.746Z,90.10
2022-10-11T07:06:17.416Z,89.60
2022-10-11T07:08:45.137Z,89.20
2022-10-11T07:11:19.213Z,88.40
2022-10-11T07:13:54.537Z,87.80
2022-10-11T07:16:22.746Z,87.60
2022-10-11T07:18:59.631Z,87.50
2022-10-11T07:21:29.417Z,86.40
2022-10-11T07:23:56.772Z,86.40
2022-10-11T07:26:24.106Z,86.20
2022-10-11T07:28:51.750Z,86.50
2022-10-11T07:31:21.830Z,86.80
2022-10-11T07:33:49.335Z,86.90
2022-10-11T07:36:16.917Z,86.40
2022-10-11T07:38:46.558Z,86.30
2022-10-11T07:41:14.906Z,86.20
2022-10-11T07:43:48.015Z,86.60
2022-10-11T07:46:16.173Z,86.30
2022-10-11T07:48:43.532Z,86.30
2022-10-11T07:51:17.243Z,86.80
2022-10-11T07:53:46.947Z,86.70
2022-10-11T07:56:23.172Z,86.90
2022-10-11T07:58:56.029Z,86.60
2022-10-11T08:01:24.276Z,86.80
2022-10-11T08:03:52.116Z,87.10
2022-10-11T08:06:23.371Z,87.70
2022-10-11T08:08:50.949Z,87.50
2022-10-11T08:11:23.946Z,87.60
2022-10-11T08:13:51.534Z,87.20
2022-10-11T08:16:19.658Z,87.20
2022-10-11T08:18:47.743Z,87.40
2022-10-11T08:21:17.226Z,87.70
2022-10-11T08:23:44.929Z,88.60
2022-10-11T08:26:12.832Z,89.20
2022-10-11T08:28:40.419Z,90.20
2022-10-11T08:31:08.097Z,90.50
2022-10-11T08:33:35.492Z,90.80
2022-10-11T08:36:06.733Z,91.10
2022-10-11T08:38:36.353Z,90.80
2022-10-11T08:41:14.891Z,91.80
2022-10-11T08:43:45.381Z,91.90
2022-10-11T08:46:15.493Z,91.30
2022-10-11T08:48:49.096Z,91.70
2022-10-11T08:51:28.177Z,91.60
2022-10-11T08:53:55.594Z,91.60
2022-10-11T08:56:24.480Z,89.90
2022-10-11T08:59:30.420Z,90.20
2022-10-11T09:02:55.516Z,88.60
2022-10-11T09:05:25.489Z,87.90
2022-10-11T09:08:05.340Z,88.00
2022-10-11T09:10:54.090Z,87.30
2022-10-11T09:13:52.809Z,87.60
2022-10-11T09:16:42.893Z,87.90
2022-10-11T09:19:43.429Z,87.60
2022-10-11T09:22:18.509Z,86.30
2022-10-11T09:25:07.728Z,87.00
2022-10-11T09:28:03.764Z,87.50
2022-10-11T09:30:32.457Z,85.80
2022-10-11T09:33:14.880Z,85.60
2022-10-11T09:35:50.045Z,86.30
2022-10-11T09:38:38.968Z,86.00
2022-10-11T09:41:27.555Z,86.00
2022-10-11T09:43:55.033Z,85.80
2022-10-11T09:46:49.754Z,85.80
2022-10-11T09:49:20.504Z,86.40
2022-10-11T09:51:55.132Z,85.90
2022-10-11T09:54:37.147Z,84.30
2022-10-11T09:57:04.790Z,84.30
2022-10-11T09:59:34.403Z,84.00
2022-10-11T10:02:13.914Z,83.40
2022-10-11T10:05:07.506Z,83.70
2022-10-11T10:07:36.552Z,84.10
2022-10-11T10:10:34.511Z,83.50
2022-10-11T10:13:05.066Z,84.40
2022-10-11T10:15:37.736Z,84.40
2022-10-11T10:18:10.898Z,84.80
2022-10-11T10:20:39.062Z,83.60
2022-10-11T10:23:35.422Z,83.40
2022-10-11T10:26:19.055Z,83.30
2022-10-11T10:29:09.848Z,83.40
2022-10-11T10:35:02.536Z,83.30
2022-10-11T10:37:34.825Z,83.60
2022-10-11T10:40:23.255Z,80.90
2022-10-11T10:42:51.469Z,80.80
2022-10-11T10:45:24.854Z,81.10
2022-10-11T10:49:23.577Z,80.30
2022-10-11T10:52:13.416Z,79.80
2022-10-11T10:55:28.746Z,79.30
2022-10-11T10:58:10.817Z,78.80
2022-10-11T11:00:52.189Z,79.00
2022-10-11T11:03:25.119Z,79.60
2022-10-11T11:06:09.183Z,79.70
2022-10-11T11:08:39.828Z,80.00
2022-10-11T11:11:25.145Z,79.70
2022-10-11T11:13:58.348Z,78.70
2022-10-11T11:16:25.731Z,77.90
2022-10-11T11:19:10.366Z,77.20
2022-10-11T11:22:06.967Z,76.00
2022-10-11T11:24:53.399Z,74.10
2022-10-11T11:27:47.085Z,74.40
2022-10-11T11:30:22.914Z,74.40
2022-10-11T11:33:12.388Z,73.50
2022-10-11T11:35:47.771Z,72.20
2022-10-11T11:38:27.132Z,70.40
2022-10-11T11:41:03.095Z,69.50
2022-10-11T11:43:38.739Z,68.40
2022-10-11T11:46:14.285Z,67.40
2022-10-11T11:48:43.574Z,66.50
2022-10-11T11:51:20.914Z,64.50
2022-10-11T11:54:06.672Z,62.90
2022-10-11T11:56:53.684Z,61.30
2022-10-11T11:59:57.957Z,63.10
2022-10-11T12:03:06.464Z,62.20
2022-10-11T12:05:36.649Z,62.20
2022-10-11T12:08:27.300Z,63.60
2022-10-11T12:11:00.077Z,63.50
2022-10-11T12:13:35.984Z,64.20
2022-10-11T12:16:15.096Z,64.00
2022-10-11T12:19:00.954Z,64.00
2022-10-11T12:21:41.293Z,64.90
2022-10-11T12:24:20.489Z,63.90
2022-10-11T12:26:59.851Z,65.30
2022-10-11T12:29:49.484Z,65.50
2022-10-11T12:32:28.670Z,65.20
2022-10-11T12:35:31.585Z,64.40
2022-10-11T12:38:14.547Z,64.00
2022-10-11T12:40:46.314Z,64.70
2022-10-11T12:43:16.503Z,65.10
2022-10-11T12:45:48.259Z,64.10
2022-10-11T12:48:41.066Z,64.60
2022-10-11T12:51:28.505Z,63.90
2022-10-11T12:54:36.985Z,63.40
2022-10-11T12:57:29.065Z,62.80
2022-10-11T13:00:19.266Z,62.90
2022-10-11T13:02:48.246Z,63.30
2022-10-11T13:05:33.721Z,62.80
2022-10-11T13:08:06.011Z,63.50
2022-10-11T13:10:42.784Z,61.20
2022-10-11T13:13:22.387Z,60.50
2022-10-11T13:15:53.317Z,61.50
2022-10-11T13:18:24.405Z,61.20
2022-10-11T13:20:51.867Z,61.80
2022-10-11T13:23:28.926Z,62.00
2022-10-11T13:25:57.009Z,61.70
2022-10-11T13:28:25.015Z,62.00
2022-10-11T13:30:56.389Z,62.60
2022-10-11T13:33:32.437Z,62.70
2022-10-11T13:36:06.411Z,64.50
2022-10-11T13:38:37.087Z,62.00
2022-10-11T13:41:07.602Z,61.60
2022-10-11T13:43:36.210Z,62.50
2022-10-11T13:46:07.522Z,61.90
2022-10-11T13:48:41.963Z,62.50
2022-10-11T13:51:17.245Z,62.40
2022-10-11T13:54:01.308Z,63.50
2022-10-11T13:56:33.579Z,62.60
2022-10-11T13:59:01.606Z,63.10
2022-10-11T14:01:49.891Z,62.50
2022-10-11T14:04:17.814Z,60.50
2022-10-11T14:06:58.616Z,61.90
2022-10-11T14:09:35.055Z,62.80
2022-10-11T14:12:41.203Z,62.10
2022-10-11T14:15:33.498Z,63.00
2022-10-11T14:18:02.808Z,62.90
2022-10-11T14:20:39.212Z,63.70
2022-10-11T14:23:07.907Z,63.40
2022-10-11T14:25:35.604Z,63.40
2022-10-11T14:28:03.001Z,63.90
2022-10-11T14:30:31.880Z,63.90
2022-10-11T14:33:02.865Z,64.70
2022-10-11T14:35:32.701Z,64.90
2022-10-11T14:38:00.188Z,64.90
2022-10-11T14:40:30.356Z,65.30
2022-10-11T14:42:57.986Z,65.90
2022-10-11T14:45:25.860Z,66.00
2022-10-11T14:47:53.857Z,66.00
2022-10-11T14:50:36.998Z,65.30
2022-10-11T14:53:06.215Z,66.70
2022-10-11T14:55:35.846Z,66.80
2022-10-11T14:58:03.920Z,67.20
2022-10-11T15:00:32.587Z,67.50
2022-10-11T15:03:00.039Z,67.70
2022-10-11T15:05:33.674Z,69.40
2022-10-11T15:08:02.691Z,70.10
2022-10-11T15:10:41.093Z,70.70
2022-10-11T15:13:09.389Z,70.70
2022-10-11T15:15:41.085Z,70.70
2022-10-11T15:18:12.948Z,71.40
2022-10-11T15:20:43.125Z,71.30
2022-10-11T15:23:11.611Z,71.40
2022-10-11T15:25:40.743Z,72.10
2022-10-11T15:28:18.755Z,72.90
2022-10-11T15:30:46.057Z,73.20
2022-10-11T15:33:13.627Z,74.20
2022-10-11T15:35:41.053Z,74.40
2022-10-11T15:38:20.208Z,75.20
2022-10-11T15:40:48.634Z,75.40
2022-10-11T15:43:20.773Z,76.00
2022-10-11T15:45:51.258Z,76.30
2022-10-11T15:48:20.789Z,76.80
2022-10-11T15:50:49.925Z,77.00
2022-10-11T15:53:20.883Z,77.30
2022-10-11T15:55:51.285Z,77.90
2022-10-11T15:58:27.921Z,78.40
2022-10-11T16:00:57.843Z,78.80
2022-10-11T16:03:27.862Z,78.80
2022-10-11T16:05:59.916Z,79.20
2022-10-11T16:08:29.921Z,79.30
2022-10-11T16:10:58.296Z,79.50
2022-10-11T16:13:26.004Z,79.70
2022-10-11T16:15:53.694Z,80.00
2022-10-11T16:18:22.595Z,80.50
2022-10-11T16:20:53.883Z,80.40
2022-10-11T16:23:23.721Z,80.70
2022-10-11T16:26:04.622Z,80.80
2022-10-11T16:28:32.714Z,81.10
2022-10-11T16:31:00.571Z,81.20
2022-10-11T16:33:28.165Z,81.30
2022-10-11T16:36:16.686Z,81.50
2022-10-11T16:38:44.275Z,81.90
2022-10-11T16:41:11.726Z,82.00
2022-10-11T16:43:39.001Z,82.50
2022-10-11T16:46:07.106Z,82.90
2022-10-11T16:48:35.485Z,83.20
2022-10-11T16:51:07.442Z,83.30
2022-10-11T16:53:35.888Z,83.40
2022-10-11T16:56:10.802Z,84.00
2022-10-11T16:58:38.932Z,84.10
2022-10-11T17:01:11.877Z,84.00
2022-10-11T17:03:39.680Z,84.40
2022-10-11T17:06:08.213Z,84.40
2022-10-11T17:08:36.769Z,84.50
2022-10-11T17:11:04.848Z,84.50
2022-10-11T17:13:32.369Z,84.50
2022-10-11T17:16:00.178Z,84.60
2022-10-11T17:18:27.849Z,84.60
2022-10-11T17:21:03.084Z,84.60
2022-10-11T17:23:30.594Z,85.20
2022-10-11T17:25:58.045Z,85.30
2022-10-11T17:28:26.626Z,85.30
2022-10-11T17:30:58.283Z,85.60
2022-10-11T17:33:26.908Z,85.50
2022-10-11T17:35:55.768Z,85.60
2022-10-11T17:38:28.088Z,86.00
2022-10-11T17:41:05.768Z,86.20
2022-10-11T17:43:33.497Z,85.90
2022-10-11T17:46:06.115Z,86.20
2022-10-11T17:48:37.338Z,86.40
2022-10-11T17:51:16.492Z,86.70
2022-10-11T17:53:45.484Z,87.20
2022-10-11T17:56:27.611Z,87.20
2022-10-11T17:58:58.417Z,86.90
2022-10-11T18:01:31.224Z,87.10
2022-10-11T18:04:01.963Z,87.20
2022-10-11T18:06:32.338Z,87.30
2022-10-11T18:09:04.747Z,87.70
2022-10-11T18:11:32.556Z,87.50
2022-10-11T18:14:00.600Z,88.30
2022-10-11T18:16:30.015Z,88.50
2022-10-11T18:18:58.763Z,89.00
2022-10-11T18:21:33.646Z,89.20
2022-10-11T18:24:03.426Z,90.10
2022-10-11T18:26:31.273Z,90.20
2022-10-11T18:28:59.544Z,90.00
2022-10-11T18:31:30.417Z,90.20
2022-10-11T18:33:58.224Z,90.40
2022-10-11T18:36:28.090Z,90.60
2022-10-11T18:38:58.821Z,90.50
2022-10-11T18:41:31.511Z,90.20
2022-10-11T18:44:01.623Z,90.60
2022-10-11T18:46:29.705Z,91.10
2022-10-11T18:48:59.064Z,90.80
2022-10-11T18:51:32.424Z,90.60
2022-10-11T18:54:00.769Z,90.90
2022-10-11T18:56:30.665Z,91.10
2022-10-11T18:59:00.581Z,91.40
2022-10-11T19:01:33.769Z,91.50
2022-10-11T19:04:03.067Z,91.90
2022-10-11T19:06:35.825Z,91.70
2022-10-11T19:09:06.651Z,92.00
2022-10-11T19:11:34.107Z,92.10
2022-10-11T19:14:07.611Z,92.20
2022-10-11T19:16:40.596Z,92.20
2022-10-11T19:19:09.890Z,92.40
2022-10-11T19:21:37.988Z,92.10
2022-10-11T19:24:05.815Z,92.20
2022-10-11T19:26:38.449Z,92.00
2022-10-11T19:29:08.733Z,92.40
2022-10-11T19:31:40.504Z,92.30
2022-10-11T19:34:08.455Z,92.10
2022-10-11T19:36:36.937Z,92.50
2022-10-11T19:39:06.150Z,92.70
2022-10-11T19:41:33.577Z,92.60
2022-10-11T19:44:00.889Z,92.70
2022-10-11T19:49:18.013Z,92.90
2022-10-11T19:51:45.474Z,93.10
2022-10-11T19:54:14.469Z,93.50
2022-10-11T19:56:42.797Z,93.20
2022-10-11T19:59:11.534Z,93.20
2022-10-11T20:01:40.340Z,93.60
2022-10-11T20:04:22.664Z,93.00
2022-10-11T20:06:58.205Z,93.40
2022-10-11T20:09:30.295Z,93.60
2022-10-11T20:11:58.241Z,94.00
2022-10-11T20:14:26.120Z,93.90
2022-10-11T20:16:53.488Z,94.30
2022-10-11T20:19:26.328Z,94.50
2022-10-11T20:21:55.479Z,95.00
2022-10-11T20:24:22.805Z,94.60
2022-10-11T20:26:50.119Z,94.40
2022-10-11T20:29:17.486Z,94.30
2022-10-11T20:31:45.133Z,94.30
2022-10-11T20:34:12.487Z,94.30
2022-10-11T20:36:40.054Z,94.50
2022-10-11T20:39:07.534Z,94.60
2022-10-11T20:41:43.157Z,95.00
2022-10-11T20:44:12.688Z,95.20
2022-10-11T20:46:40.129Z,95.30
2022-10-11T20:49:10.759Z,95.20
2022-10-11T20:51:40.040Z,95.50
2022-10-11T20:54:07.957Z,95.50
2022-10-11T20:56:35.922Z,95.20
2022-10-11T20:59:03.844Z,95.40
2022-10-11T21:01:34.963Z,95.20
2022-10-11T21:04:03.167Z,95.10
2022-10-11T21:06:32.132Z,95.20
2022-10-11T21:09:00.257Z,95.20
2022-10-11T21:11:29.333Z,94.60
2022-10-11T21:14:02.581Z,95.00
2022-10-11T21:16:30.412Z,95.10
2022-10-11T21:18:59.729Z,95.10
2022-10-11T21:21:28.403Z,94.80
2022-10-11T21:23:57.358Z,95.40
2022-10-11T21:26:24.936Z,95.30
2022-10-11T21:28:52.334Z,95.20
2022-10-11T21:31:21.225Z,95.40
2022-10-11T21:33:48.934Z,95.60
2022-10-11T21:36:21.672Z,95.10
2022-10-11T21:38:49.919Z,95.40
2022-10-11T21:41:20.613Z,95.00
2022-10-11T21:43:48.482Z,95.20
2022-10-11T21:46:47.404Z,95.20
2022-10-11T21:49:15.611Z,95.30
2022-10-11T21:51:42.965Z,95.00
2022-10-11T21:54:10.779Z,95.10
2022-10-11T21:56:38.180Z,95.30
2022-10-11T21:59:08.078Z,95.60
2022-10-11T22:01:39.528Z,95.40
2022-10-11T22:04:10.249Z,95.00
2022-10-11T22:06:39.136Z,95.10
2022-10-11T22:09:07.087Z,95.00
2022-10-11T22:11:34.543Z,94.80
2022-10-11T22:14:02.027Z,95.20
2022-10-11T22:16:29.687Z,95.10
2022-10-11T22:18:57.260Z,95.10
2022-10-11T22:21:24.623Z,95.00
2022-10-11T22:23:54.140Z,95.10
2022-10-11T22:26:31.791Z,94.90
2022-10-11T22:29:00.759Z,95.30
2022-10-11T22:31:29.049Z,95.30
2022-10-11T22:33:58.562Z,94.90
2022-10-11T22:36:26.618Z,94.90
2022-10-11T22:38:54.812Z,95.10
2022-10-11T22:41:22.585Z,95.00
2022-10-11T22:43:52.226Z,94.80
2022-10-11T22:46:19.629Z,95.30
2022-10-11T22:48:47.007Z,95.10
2022-10-11T22:51:14.857Z,94.90
2022-10-11T22:53:42.284Z,94.70
2022-10-11T22:56:11.073Z,95.10
2022-10-11T22:58:38.780Z,95.00
2022-10-11T23:01:15.647Z,94.90
2022-10-11T23:03:43.630Z,95.30
2022-10-11T23:06:11.183Z,95.30
2022-10-11T23:08:38.789Z,95.20
2022-10-11T23:11:07.789Z,95.30
2022-10-11T23:13:35.606Z,95.50
2022-10-11T23:16:10.933Z,95.50
2022-10-11T23:18:38.711Z,95.30
2022-10-11T23:21:06.436Z,95.70
2022-10-11T23:23:34.227Z,95.50
2022-10-11T23:26:15.874Z,95.40
2022-10-11T23:28:44.532Z,95.50
2022-10-11T23:31:17.389Z,95.80
2022-10-11T23:33:46.528Z,95.70
2022-10-11T23:36:25.161Z,95.80
2022-10-11T23:38:54.676Z,95.90
2022-10-11T23:41:27.444Z,96.20
2022-10-11T23:43:54.938Z,96.20
2022-10-11T23:46:22.627Z,96.20
2022-10-11T23:48:50.085Z,96.10
2022-10-11T23:51:17.664Z,96.10
2022-10-11T23:53:45.095Z,96.10
2022-10-11T23:56:13.115Z,96.00
2022-10-11T23:58:40.875Z,96.00
